sensor_id;sensor_type;location;lat;lon;timestamp;pressure;altitude;pressure_sealevel;temperature;humidity
61318;BME280;47201;40.428;-8.436;2023-04-27T00:00:13;100427.94;;;15.77;100.00
61318;BME280;47201;40.428;-8.436;2023-04-27T00:02:15;100435.75;;;15.80;100.00
61318;BME280;47201;40.428;-8.436;2023-04-27T00:04:15;100436.63;;;15.80;100.00
61318;BME280;47201;40.428;-8.436;2023-04-27T00:06:16;100441.91;;;15.79;100.00
61318;BME280;47201;40.428;-8.436;2023-04-27T00:08:16;100446.41;;;15.77;100.00
61318;BME280;47201;40.428;-8.436;2023-04-27T00:10:17;100444.72;;;15.74;100.00
61318;BME280;47201;40.428;-8.436;2023-04-27T00:12:36;100439.47;;;15.73;100.00
61318;BME280;47201;40.428;-8.436;2023-04-27T00:14:37;100432.56;;;15.68;100.00
61318;BME280;47201;40.428;-8.436;2023-04-27T00:16:37;100420.22;;;15.70;100.00
61318;BME280;47201;40.428;-8.436;2023-04-27T00:18:38;100416.56;;;15.75;100.00
61318;BME280;47201;40.428;-8.436;2023-04-27T00:20:38;100418.34;;;15.74;100.00
61318;BME280;47201;40.428;-8.436;2023-04-27T00:22:40;100421.00;;;15.73;100.00
61318;BME280;47201;40.428;-8.436;2023-04-27T00:24:59;100420.34;;;15.64;100.00
61318;BME280;47201;40.428;-8.436;2023-04-27T00:27:03;100435.38;;;15.62;100.00
61318;BME280;47201;40.428;-8.436;2023-04-27T00:29:03;100439.06;;;15.55;100.00
61318;BME280;47201;40.428;-8.436;2023-04-27T00:31:06;100443.50;;;15.53;100.00
61318;BME280;47201;40.428;-8.436;2023-04-27T00:33:07;100450.56;;;15.51;100.00
61318;BME280;47201;40.428;-8.436;2023-04-27T00:35:08;100454.22;;;15.47;100.00
61318;BME280;47201;40.428;-8.436;2023-04-27T00:37:08;100457.78;;;15.44;100.00
61318;BME280;47201;40.428;-8.436;2023-04-27T00:39:10;100459.59;;;15.42;100.00
61318;BME280;47201;40.428;-8.436;2023-04-27T00:41:11;100460.56;;;15.38;100.00
61318;BME280;47201;40.428;-8.436;2023-04-27T00:43:11;100461.50;;;15.35;100.00
61318;BME280;47201;40.428;-8.436;2023-04-27T00:45:12;100460.59;;;15.36;100.00
61318;BME280;47201;40.428;-8.436;2023-04-27T00:47:13;100450.00;;;15.39;100.00
61318;BME280;47201;40.428;-8.436;2023-04-27T00:49:15;100436.00;;;15.37;100.00
61318;BME280;47201;40.428;-8.436;2023-04-27T00:51:15;100424.72;;;15.32;100.00
61318;BME280;47201;40.428;-8.436;2023-04-27T00:53:17;100422.25;;;15.26;100.00
61318;BME280;47201;40.428;-8.436;2023-04-27T00:55:18;100421.59;;;15.16;100.00
61318;BME280;47201;40.428;-8.436;2023-04-27T00:57:19;100415.66;;;15.08;100.00
61318;BME280;47201;40.428;-8.436;2023-04-27T00:59:19;100413.22;;;15.00;100.00
61318;BME280;47201;40.428;-8.436;2023-04-27T01:01:22;100422.22;;;14.91;100.00
61318;BME280;47201;40.428;-8.436;2023-04-27T01:03:25;100431.13;;;14.86;100.00
61318;BME280;47201;40.428;-8.436;2023-04-27T01:05:26;100431.44;;;14.73;100.00
61318;BME280;47201;40.428;-8.436;2023-04-27T01:07:27;100429.84;;;14.66;100.00
61318;BME280;47201;40.428;-8.436;2023-04-27T01:09:28;100430.84;;;14.59;100.00
61318;BME280;47201;40.428;-8.436;2023-04-27T01:11:29;100442.38;;;14.53;100.00
61318;BME280;47201;40.428;-8.436;2023-04-27T01:13:30;100437.94;;;14.54;100.00
61318;BME280;47201;40.428;-8.436;2023-04-27T01:15:33;100430.84;;;14.59;100.00
61318;BME280;47201;40.428;-8.436;2023-04-27T01:17:58;100419.41;;;14.60;100.00
61318;BME280;47201;40.428;-8.436;2023-04-27T01:20:01;100412.38;;;14.60;100.00
61318;BME280;47201;40.428;-8.436;2023-04-27T01:22:02;100406.22;;;14.62;100.00
61318;BME280;47201;40.428;-8.436;2023-04-27T01:24:06;100392.19;;;14.61;100.00
61318;BME280;47201;40.428;-8.436;2023-04-27T01:26:07;100392.13;;;14.66;100.00
61318;BME280;47201;40.428;-8.436;2023-04-27T01:28:08;100397.34;;;14.67;100.00
61318;BME280;47201;40.428;-8.436;2023-04-27T01:30:10;100383.34;;;14.67;100.00
61318;BME280;47201;40.428;-8.436;2023-04-27T01:32:12;100386.81;;;14.67;100.00
61318;BME280;47201;40.428;-8.436;2023-04-27T01:34:12;100386.81;;;14.69;100.00
61318;BME280;47201;40.428;-8.436;2023-04-27T01:36:31;100387.59;;;14.71;100.00
61318;BME280;47201;40.428;-8.436;2023-04-27T01:38:33;100382.34;;;14.72;100.00
61318;BME280;47201;40.428;-8.436;2023-04-27T01:40:33;100382.25;;;14.75;100.00
61318;BME280;47201;40.428;-8.436;2023-04-27T01:42:34;100382.22;;;14.77;100.00
61318;BME280;47201;40.428;-8.436;2023-04-27T01:44:35;100380.50;;;14.76;100.00
61318;BME280;47201;40.428;-8.436;2023-04-27T01:46:35;100382.22;;;14.77;100.00
61318;BME280;47201;40.428;-8.436;2023-04-27T01:48:36;100383.06;;;14.78;100.00
61318;BME280;47201;40.428;-8.436;2023-04-27T01:50:37;100390.00;;;14.82;100.00
61318;BME280;47201;40.428;-8.436;2023-04-27T01:52:40;100381.19;;;14.84;100.00
61318;BME280;47201;40.428;-8.436;2023-04-27T01:54:41;100382.84;;;14.87;100.00
61318;BME280;47201;40.428;-8.436;2023-04-27T01:56:41;100378.34;;;14.92;100.00
61318;BME280;47201;40.428;-8.436;2023-04-27T01:59:03;100371.94;;;15.02;100.00
61318;BME280;47201;40.428;-8.436;2023-04-27T02:01:22;100360.38;;;15.08;100.00
61318;BME280;47201;40.428;-8.436;2023-04-27T02:03:23;100350.63;;;15.13;100.00
61318;BME280;47201;40.428;-8.436;2023-04-27T02:05:24;100345.22;;;15.18;100.00
61318;BME280;47201;40.428;-8.436;2023-04-27T02:07:26;100346.88;;;15.22;100.00
61318;BME280;47201;40.428;-8.436;2023-04-27T02:09:27;100346.78;;;15.25;100.00
61318;BME280;47201;40.428;-8.436;2023-04-27T02:11:27;100337.06;;;15.27;100.00
61318;BME280;47201;40.428;-8.436;2023-04-27T02:13:46;100335.25;;;15.29;100.00
61318;BME280;47201;40.428;-8.436;2023-04-27T02:15:48;100332.75;;;15.25;100.00
61318;BME280;47201;40.428;-8.436;2023-04-27T02:17:49;100325.63;;;15.28;100.00
61318;BME280;47201;40.428;-8.436;2023-04-27T02:19:49;100326.59;;;15.26;100.00
61318;BME280;47201;40.428;-8.436;2023-04-27T02:21:51;100327.47;;;15.25;100.00
61318;BME280;47201;40.428;-8.436;2023-04-27T02:24:10;100334.59;;;15.22;100.00
61318;BME280;47201;40.428;-8.436;2023-04-27T02:26:17;100337.03;;;15.29;100.00
61318;BME280;47201;40.428;-8.436;2023-04-27T02:28:37;100336.09;;;15.31;100.00
61318;BME280;47201;40.428;-8.436;2023-04-27T02:30:37;100335.19;;;15.32;100.00
61318;BME280;47201;40.428;-8.436;2023-04-27T02:32:57;100333.34;;;15.34;100.00
61318;BME280;47201;40.428;-8.436;2023-04-27T02:34:58;100331.72;;;15.30;100.00
61318;BME280;47201;40.428;-8.436;2023-04-27T02:37:01;100331.00;;;15.25;100.00
61318;BME280;47201;40.428;-8.436;2023-04-27T02:39:01;100332.88;;;15.20;100.00
61318;BME280;47201;40.428;-8.436;2023-04-27T02:41:03;100338.13;;;15.20;100.00
61318;BME280;47201;40.428;-8.436;2023-04-27T02:43:03;100332.19;;;15.12;100.00
61318;BME280;47201;40.428;-8.436;2023-04-27T02:45:05;100332.31;;;15.09;100.00
61318;BME280;47201;40.428;-8.436;2023-04-27T02:47:06;100337.69;;;15.04;100.00
61318;BME280;47201;40.428;-8.436;2023-04-27T02:49:07;100344.75;;;15.02;100.00
61318;BME280;47201;40.428;-8.436;2023-04-27T02:51:08;100336.91;;;15.00;100.00
61318;BME280;47201;40.428;-8.436;2023-04-27T02:53:27;100329.00;;;15.00;100.00
61318;BME280;47201;40.428;-8.436;2023-04-27T02:55:27;100317.63;;;15.00;100.00
61318;BME280;47201;40.428;-8.436;2023-04-27T02:57:28;100315.09;;;14.95;100.00
61318;BME280;47201;40.428;-8.436;2023-04-27T02:59:38;100308.28;;;14.86;100.00
61318;BME280;47201;40.428;-8.436;2023-04-27T03:01:38;100303.97;;;14.84;100.00
61318;BME280;47201;40.428;-8.436;2023-04-27T03:03:39;100306.78;;;14.78;100.00
61318;BME280;47201;40.428;-8.436;2023-04-27T03:05:58;100305.81;;;14.82;100.00
61318;BME280;47201;40.428;-8.436;2023-04-27T03:07:59;100309.34;;;14.81;100.00
61318;BME280;47201;40.428;-8.436;2023-04-27T03:10:00;100312.88;;;14.80;100.00
61318;BME280;47201;40.428;-8.436;2023-04-27T03:12:03;100309.19;;;14.87;100.00
61318;BME280;47201;40.428;-8.436;2023-04-27T03:14:04;100304.66;;;14.92;100.00
61318;BME280;47201;40.428;-8.436;2023-04-27T03:16:04;100308.94;;;14.96;100.00
61318;BME280;47201;40.428;-8.436;2023-04-27T03:18:05;100316.75;;;14.99;100.00
61318;BME280;47201;40.428;-8.436;2023-04-27T03:20:07;100308.69;;;15.05;100.00
61318;BME280;47201;40.428;-8.436;2023-04-27T03:22:09;100313.00;;;15.08;100.00
61318;BME280;47201;40.428;-8.436;2023-04-27T03:24:09;100317.34;;;15.11;100.00
61318;BME280;47201;40.428;-8.436;2023-04-27T03:26:28;100326.03;;;15.13;100.00
61318;BME280;47201;40.428;-8.436;2023-04-27T03:28:48;100322.50;;;15.14;100.00
61318;BME280;47201;40.428;-8.436;2023-04-27T03:30:49;100316.28;;;15.16;100.00
61318;BME280;47201;40.428;-8.436;2023-04-27T03:32:51;100321.56;;;15.16;100.00
61318;BME280;47201;40.428;-8.436;2023-04-27T03:34:52;100322.34;;;15.20;100.00
61318;BME280;47201;40.428;-8.436;2023-04-27T03:37:11;100324.13;;;15.19;100.00
61318;BME280;47201;40.428;-8.436;2023-04-27T03:39:12;100326.81;;;15.18;100.00
61318;BME280;47201;40.428;-8.436;2023-04-27T03:41:12;100328.56;;;15.17;100.00
61318;BME280;47201;40.428;-8.436;2023-04-27T03:43:34;100334.72;;;15.16;100.00
61318;BME280;47201;40.428;-8.436;2023-04-27T03:45:54;100316.47;;;15.10;100.00
61318;BME280;47201;40.428;-8.436;2023-04-27T03:47:54;100323.38;;;15.14;100.00
61318;BME280;47201;40.428;-8.436;2023-04-27T03:50:13;100323.41;;;15.13;100.00
61318;BME280;47201;40.428;-8.436;2023-04-27T03:52:14;100331.22;;;15.16;100.00
61318;BME280;47201;40.428;-8.436;2023-04-27T03:54:15;100332.13;;;15.15;100.00
61318;BME280;47201;40.428;-8.436;2023-04-27T03:56:15;100330.34;;;15.15;100.00
61318;BME280;47201;40.428;-8.436;2023-04-27T03:58:16;100328.56;;;15.17;100.00
61318;BME280;47201;40.428;-8.436;2023-04-27T04:00:36;100328.47;;;15.20;100.00
61318;BME280;47201;40.428;-8.436;2023-04-27T04:02:36;100327.66;;;15.18;100.00
61318;BME280;47201;40.428;-8.436;2023-04-27T04:04:37;100333.88;;;15.16;100.00
61318;BME280;47201;40.428;-8.436;2023-04-27T04:06:37;100321.72;;;15.10;100.00
61318;BME280;47201;40.428;-8.436;2023-04-27T04:08:38;100319.19;;;15.07;100.00
61318;BME280;47201;40.428;-8.436;2023-04-27T04:10:38;100307.88;;;15.03;100.00
61318;BME280;47201;40.428;-8.436;2023-04-27T04:12:39;100302.69;;;15.00;100.00
61318;BME280;47201;40.428;-8.436;2023-04-27T04:14:40;100299.06;;;15.04;100.00
61318;BME280;47201;40.428;-8.436;2023-04-27T04:16:59;100304.19;;;15.09;100.00
61318;BME280;47201;40.428;-8.436;2023-04-27T04:19:00;100304.13;;;15.12;100.00
61318;BME280;47201;40.428;-8.436;2023-04-27T04:21:03;100304.19;;;15.09;100.00
61318;BME280;47201;40.428;-8.436;2023-04-27T04:23:04;100303.25;;;15.12;100.00
61318;BME280;47201;40.428;-8.436;2023-04-27T04:25:05;100302.28;;;15.16;100.00
61318;BME280;47201;40.428;-8.436;2023-04-27T04:27:06;100308.31;;;15.19;100.00
61318;BME280;47201;40.428;-8.436;2023-04-27T04:29:06;100309.16;;;15.20;100.00
61318;BME280;47201;40.428;-8.436;2023-04-27T04:31:07;100312.69;;;15.20;100.00
61318;BME280;47201;40.428;-8.436;2023-04-27T04:33:08;100321.56;;;15.16;100.00
61318;BME280;47201;40.428;-8.436;2023-04-27T04:35:27;100314.72;;;15.09;100.00
61318;BME280;47201;40.428;-8.436;2023-04-27T04:37:31;100305.16;;;15.06;100.00
61318;BME280;47201;40.428;-8.436;2023-04-27T04:39:32;100299.88;;;15.06;100.00
61318;BME280;47201;40.428;-8.436;2023-04-27T04:41:33;100303.34;;;15.09;100.00
61318;BME280;47201;40.428;-8.436;2023-04-27T04:43:34;100301.66;;;15.06;100.00
61318;BME280;47201;40.428;-8.436;2023-04-27T04:45:39;100307.91;;;15.02;100.00
61318;BME280;47201;40.428;-8.436;2023-04-27T04:47:41;100314.28;;;14.93;100.00
61318;BME280;47201;40.428;-8.436;2023-04-27T04:49:42;100308.34;;;14.85;100.00
61318;BME280;47201;40.428;-8.436;2023-04-27T04:51:43;100301.56;;;14.74;100.00
61318;BME280;47201;40.428;-8.436;2023-04-27T04:53:45;100303.50;;;14.68;100.00
61318;BME280;47201;40.428;-8.436;2023-04-27T04:55:46;100314.16;;;14.62;100.00
61318;BME280;47201;40.428;-8.436;2023-04-27T04:57:47;100319.47;;;14.58;100.00
61318;BME280;47201;40.428;-8.436;2023-04-27T04:59:48;100319.53;;;14.57;100.00
61318;BME280;47201;40.428;-8.436;2023-04-27T05:02:06;100318.69;;;14.55;100.00
61318;BME280;47201;40.428;-8.436;2023-04-27T05:04:07;100311.75;;;14.52;100.00
61318;BME280;47201;40.428;-8.436;2023-04-27T05:06:07;100312.69;;;14.50;100.00
61318;BME280;47201;40.428;-8.436;2023-04-27T05:08:08;100306.59;;;14.48;100.00
61318;BME280;47201;40.428;-8.436;2023-04-27T05:10:08;100311.91;;;14.44;100.00
61318;BME280;47201;40.428;-8.436;2023-04-27T05:12:09;100304.97;;;14.43;100.00
61318;BME280;47201;40.428;-8.436;2023-04-27T05:14:09;100300.53;;;14.44;100.00
61318;BME280;47201;40.428;-8.436;2023-04-27T05:16:10;100306.69;;;14.43;100.00
61318;BME280;47201;40.428;-8.436;2023-04-27T05:18:11;100314.53;;;14.44;100.00
61318;BME280;47201;40.428;-8.436;2023-04-27T05:20:12;100316.25;;;14.47;100.00
61318;BME280;47201;40.428;-8.436;2023-04-27T05:22:13;100310.06;;;14.50;100.00
61318;BME280;47201;40.428;-8.436;2023-04-27T05:24:13;100308.28;;;14.50;100.00
61318;BME280;47201;40.428;-8.436;2023-04-27T05:26:14;100311.75;;;14.52;100.00
61318;BME280;47201;40.428;-8.436;2023-04-27T05:28:15;100314.28;;;14.57;100.00
61318;BME280;47201;40.428;-8.436;2023-04-27T05:30:16;100308.13;;;14.58;100.00
61318;BME280;47201;40.428;-8.436;2023-04-27T05:32:16;100313.38;;;14.58;100.00
61318;BME280;47201;40.428;-8.436;2023-04-27T05:34:16;100314.22;;;14.58;100.00
61318;BME280;47201;40.428;-8.436;2023-04-27T05:36:17;100307.22;;;14.57;100.00
61318;BME280;47201;40.428;-8.436;2023-04-27T05:38:17;100302.84;;;14.58;100.00
61318;BME280;47201;40.428;-8.436;2023-04-27T05:40:19;100301.94;;;14.59;100.00
61318;BME280;47201;40.428;-8.436;2023-04-27T05:42:19;100308.03;;;14.61;100.00
61318;BME280;47201;40.428;-8.436;2023-04-27T05:44:20;100310.66;;;14.61;100.00
61318;BME280;47201;40.428;-8.436;2023-04-27T05:46:21;100307.06;;;14.64;100.00
61318;BME280;47201;40.428;-8.436;2023-04-27T05:48:21;100307.06;;;14.64;100.00
61318;BME280;47201;40.428;-8.436;2023-04-27T05:50:22;100294.81;;;14.64;100.00
61318;BME280;47201;40.428;-8.436;2023-04-27T05:52:22;100293.06;;;14.63;100.00
61318;BME280;47201;40.428;-8.436;2023-04-27T05:54:28;100290.44;;;14.63;100.00
61318;BME280;47201;40.428;-8.436;2023-04-27T05:56:48;100295.56;;;14.69;100.00
61318;BME280;47201;40.428;-8.436;2023-04-27T05:58:49;100295.66;;;14.66;100.00
61318;BME280;47201;40.428;-8.436;2023-04-27T06:00:50;100305.31;;;14.66;100.00
61318;BME280;47201;40.428;-8.436;2023-04-27T06:02:51;100311.44;;;14.65;100.00
61318;BME280;47201;40.428;-8.436;2023-04-27T06:05:11;100307.88;;;14.69;100.00
61318;BME280;47201;40.428;-8.436;2023-04-27T06:07:33;100313.03;;;14.73;100.00
61318;BME280;47201;40.428;-8.436;2023-04-27T06:09:34;100318.16;;;14.78;100.00
61318;BME280;47201;40.428;-8.436;2023-04-27T06:11:36;100321.53;;;14.83;100.00
61318;BME280;47201;40.428;-8.436;2023-04-27T06:13:36;100318.88;;;14.85;100.00
61318;BME280;47201;40.428;-8.436;2023-04-27T06:15:55;100324.09;;;14.86;100.00
61318;BME280;47201;40.428;-8.436;2023-04-27T06:17:56;100324.88;;;14.90;100.00
61318;BME280;47201;40.428;-8.436;2023-04-27T06:19:56;100327.31;;;14.98;100.00
61318;BME280;47201;40.428;-8.436;2023-04-27T06:21:57;100333.19;;;15.07;100.00
61318;BME280;47201;40.428;-8.436;2023-04-27T06:23:57;100343.44;;;15.18;100.00
61318;BME280;47201;40.428;-8.436;2023-04-27T06:25:58;100357.28;;;15.27;100.00
61318;BME280;47201;40.428;-8.436;2023-04-27T06:27:59;100370.38;;;15.30;100.00
61318;BME280;47201;40.428;-8.436;2023-04-27T06:30:18;100380.81;;;15.33;100.00
61318;BME280;47201;40.428;-8.436;2023-04-27T06:32:20;100382.38;;;15.40;100.00
61318;BME280;47201;40.428;-8.436;2023-04-27T06:34:21;100388.59;;;15.37;100.00
61318;BME280;47201;40.428;-8.436;2023-04-27T06:36:21;100391.28;;;15.34;100.00
61318;BME280;47201;40.428;-8.436;2023-04-27T06:38:22;100393.00;;;15.37;100.00
61318;BME280;47201;40.428;-8.436;2023-04-27T06:40:23;100387.69;;;15.38;100.00
61318;BME280;47201;40.428;-8.436;2023-04-27T06:42:23;100384.16;;;15.39;100.00
61318;BME280;47201;40.428;-8.436;2023-04-27T06:44:43;100382.19;;;15.48;100.00
61318;BME280;47201;40.428;-8.436;2023-04-27T06:47:02;100377.72;;;15.83;100.00
61318;BME280;47201;40.428;-8.436;2023-04-27T06:49:02;100389.69;;;16.25;100.00
61318;BME280;47201;40.428;-8.436;2023-04-27T06:51:04;100388.34;;;16.96;100.00
61318;BME280;47201;40.428;-8.436;2023-04-27T06:53:04;100386.22;;;18.07;100.00
61318;BME280;47201;40.428;-8.436;2023-04-27T06:55:24;100388.44;;;19.29;100.00
61318;BME280;47201;40.428;-8.436;2023-04-27T06:57:43;100401.03;;;20.24;98.69
61318;BME280;47201;40.428;-8.436;2023-04-27T06:59:44;100414.03;;;21.56;89.29
61318;BME280;47201;40.428;-8.436;2023-04-27T07:02:04;100421.38;;;22.84;77.19
61318;BME280;47201;40.428;-8.436;2023-04-27T07:04:05;100434.28;;;24.12;71.85
61318;BME280;47201;40.428;-8.436;2023-04-27T07:06:05;100430.44;;;25.00;66.51
61318;BME280;47201;40.428;-8.436;2023-04-27T07:08:06;100440.31;;;25.65;62.83
61318;BME280;47201;40.428;-8.436;2023-04-27T07:10:07;100438.06;;;25.85;60.15
61318;BME280;47201;40.428;-8.436;2023-04-27T07:12:07;100440.22;;;26.19;56.31
61318;BME280;47201;40.428;-8.436;2023-04-27T07:14:08;100446.00;;;26.12;56.61
61318;BME280;47201;40.428;-8.436;2023-04-27T07:16:08;100451.41;;;26.37;56.04
61318;BME280;47201;40.428;-8.436;2023-04-27T07:18:09;100450.44;;;27.23;54.29
61318;BME280;47201;40.428;-8.436;2023-04-27T07:20:11;100454.91;;;28.06;51.28
61318;BME280;47201;40.428;-8.436;2023-04-27T07:22:13;100454.91;;;28.17;50.38
61318;BME280;47201;40.428;-8.436;2023-04-27T07:24:33;100452.63;;;28.79;50.46
61318;BME280;47201;40.428;-8.436;2023-04-27T07:26:52;100460.22;;;28.62;49.23
61318;BME280;47201;40.428;-8.436;2023-04-27T07:28:53;100450.25;;;27.96;51.32
61318;BME280;47201;40.428;-8.436;2023-04-27T07:30:54;100451.19;;;27.73;53.67
61318;BME280;47201;40.428;-8.436;2023-04-27T07:33:13;100445.06;;;26.88;57.51
61318;BME280;47201;40.428;-8.436;2023-04-27T07:35:14;100445.63;;;26.80;59.61
61318;BME280;47201;40.428;-8.436;2023-04-27T07:37:15;100451.81;;;27.40;57.22
61318;BME280;47201;40.428;-8.436;2023-04-27T07:39:16;100455.41;;;28.11;54.31
61318;BME280;47201;40.428;-8.436;2023-04-27T07:41:17;100458.19;;;29.31;51.31
61318;BME280;47201;40.428;-8.436;2023-04-27T07:43:19;100457.38;;;30.04;51.32
61318;BME280;47201;40.428;-8.436;2023-04-27T07:45:22;100450.25;;;30.44;50.16
61318;BME280;47201;40.428;-8.436;2023-04-27T07:47:30;100439.28;;;29.42;54.44
61318;BME280;47201;40.428;-8.436;2023-04-27T07:51:42;100438.97;;;28.71;58.47
61318;BME280;47201;40.428;-8.436;2023-04-27T07:53:43;100438.84;;;28.49;59.67
61318;BME280;47201;40.428;-8.436;2023-04-27T07:55:45;100440.38;;;29.19;58.16
61318;BME280;47201;40.428;-8.436;2023-04-27T07:58:04;100441.97;;;30.57;54.49
61318;BME280;47201;40.428;-8.436;2023-04-27T08:02:23;100451.09;;;31.44;54.06
61318;BME280;47201;40.428;-8.436;2023-04-27T08:04:23;100454.38;;;32.05;53.77
61318;BME280;47201;40.428;-8.436;2023-04-27T08:06:24;100451.78;;;32.87;52.42
61318;BME280;47201;40.428;-8.436;2023-04-27T08:08:24;100452.03;;;33.56;51.26
61318;BME280;47201;40.428;-8.436;2023-04-27T08:10:25;100463.38;;;33.15;53.64
61318;BME280;47201;40.428;-8.436;2023-04-27T08:12:25;100461.91;;;33.03;56.06
61318;BME280;47201;40.428;-8.436;2023-04-27T08:14:28;100462.81;;;33.74;55.36
61318;BME280;47201;40.428;-8.436;2023-04-27T08:16:29;100463.66;;;33.75;56.19
61318;BME280;47201;40.428;-8.436;2023-04-27T08:18:30;100466.84;;;33.08;59.56
61318;BME280;47201;40.428;-8.436;2023-04-27T08:20:30;100460.53;;;32.25;62.98
61318;BME280;47201;40.428;-8.436;2023-04-27T08:22:31;100457.19;;;31.56;65.43
61318;BME280;47201;40.428;-8.436;2023-04-27T08:24:31;100454.13;;;31.11;67.16
61318;BME280;47201;40.428;-8.436;2023-04-27T08:26:32;100455.94;;;31.30;67.16
61318;BME280;47201;40.428;-8.436;2023-04-27T08:28:34;100454.47;;;31.56;65.83
61318;BME280;47201;40.428;-8.436;2023-04-27T08:30:35;100456.47;;;31.54;66.56
61318;BME280;47201;40.428;-8.436;2023-04-27T08:32:35;100456.19;;;31.67;66.47
61318;BME280;47201;40.428;-8.436;2023-04-27T08:37:07;100451.66;;;31.47;67.55
61318;BME280;47201;40.428;-8.436;2023-04-27T08:39:08;100445.13;;;30.72;69.66
61318;BME280;47201;40.428;-8.436;2023-04-27T08:41:09;100441.53;;;30.11;72.18
61318;BME280;47201;40.428;-8.436;2023-04-27T08:43:10;100443.25;;;30.21;71.91
61318;BME280;47201;40.428;-8.436;2023-04-27T08:45:11;100442.91;;;30.46;70.75
61318;BME280;47201;40.428;-8.436;2023-04-27T08:47:11;100453.22;;;29.48;73.57
61318;BME280;47201;40.428;-8.436;2023-04-27T08:49:12;100454.66;;;29.52;73.26
61318;BME280;47201;40.428;-8.436;2023-04-27T08:51:13;100458.66;;;29.57;73.07
61318;BME280;47201;40.428;-8.436;2023-04-27T08:53:16;100454.97;;;30.42;70.22
61318;BME280;47201;40.428;-8.436;2023-04-27T08:55:35;100458.63;;;31.40;67.65
61318;BME280;47201;40.428;-8.436;2023-04-27T08:57:36;100457.47;;;31.53;66.99
61318;BME280;47201;40.428;-8.436;2023-04-27T08:59:40;100450.84;;;32.78;64.77
61318;BME280;47201;40.428;-8.436;2023-04-27T09:01:44;100460.13;;;33.12;63.96
61318;BME280;47201;40.428;-8.436;2023-04-27T09:03:45;100463.00;;;33.28;63.14
61318;BME280;47201;40.428;-8.436;2023-04-27T09:05:45;100455.28;;;32.79;64.66
61318;BME280;47201;40.428;-8.436;2023-04-27T09:10:02;100453.00;;;33.99;63.28
61318;BME280;47201;40.428;-8.436;2023-04-27T09:12:22;100453.31;;;34.90;60.69
61318;BME280;47201;40.428;-8.436;2023-04-27T09:14:41;100450.22;;;35.76;58.83
61318;BME280;47201;40.428;-8.436;2023-04-27T09:16:42;100450.56;;;35.81;59.92
61318;BME280;47201;40.428;-8.436;2023-04-27T09:18:43;100453.13;;;36.23;60.43
61318;BME280;47201;40.428;-8.436;2023-04-27T09:20:45;100452.09;;;35.67;61.33
61318;BME280;47201;40.428;-8.436;2023-04-27T09:22:50;100442.31;;;36.46;61.16
61318;BME280;47201;40.428;-8.436;2023-04-27T09:24:51;100438.97;;;36.90;59.56
61318;BME280;47201;40.428;-8.436;2023-04-27T09:26:52;100435.41;;;37.51;58.93
61318;BME280;47201;40.428;-8.436;2023-04-27T09:29:11;100440.78;;;38.34;57.34
61318;BME280;47201;40.428;-8.436;2023-04-27T09:31:21;100436.28;;;39.28;56.00
61318;BME280;47201;40.428;-8.436;2023-04-27T09:33:23;100437.19;;;40.12;54.69
61318;BME280;47201;40.428;-8.436;2023-04-27T09:35:26;100436.00;;;41.04;55.12
61318;BME280;47201;40.428;-8.436;2023-04-27T09:37:28;100430.97;;;42.13;54.76
61318;BME280;47201;40.428;-8.436;2023-04-27T09:39:29;100422.53;;;42.54;54.26
61318;BME280;47201;40.428;-8.436;2023-04-27T09:41:31;100422.22;;;41.71;56.24
61318;BME280;47201;40.428;-8.436;2023-04-27T09:43:49;100410.41;;;40.56;59.41
61318;BME280;47201;40.428;-8.436;2023-04-27T09:45:52;100403.75;;;39.69;61.34
61318;BME280;47201;40.428;-8.436;2023-04-27T09:47:53;100396.28;;;37.44;65.10
61318;BME280;47201;40.428;-8.436;2023-04-27T09:49:54;100396.75;;;37.77;64.82
61318;BME280;47201;40.428;-8.436;2023-04-27T09:51:55;100389.63;;;38.80;64.37
61318;BME280;47201;40.428;-8.436;2023-04-27T09:53:57;100400.97;;;39.33;63.18
61318;BME280;47201;40.428;-8.436;2023-04-27T10:02:39;100408.38;;;38.46;65.06
61318;BME280;47201;40.428;-8.436;2023-04-27T10:08:48;100402.72;;;37.66;66.19
61318;BME280;47201;40.428;-8.436;2023-04-27T10:10:52;100404.56;;;36.11;68.97
61318;BME280;47201;40.428;-8.436;2023-04-27T10:13:00;100399.97;;;35.64;69.67
61318;BME280;47201;40.428;-8.436;2023-04-27T10:15:16;100404.56;;;35.63;69.67
61318;BME280;47201;40.428;-8.436;2023-04-27T10:17:35;100402.50;;;36.13;69.33
61318;BME280;47201;40.428;-8.436;2023-04-27T10:20:00;100413.78;;;36.33;69.34
61318;BME280;47201;40.428;-8.436;2023-04-27T10:22:01;100408.81;;;36.14;68.95
61318;BME280;47201;40.428;-8.436;2023-04-27T10:24:07;100417.03;;;35.89;69.32
61318;BME280;47201;40.428;-8.436;2023-04-27T10:26:08;100401.06;;;35.05;70.63
61318;BME280;47201;40.428;-8.436;2023-04-27T10:28:36;100407.72;;;35.75;70.03
61318;BME280;47201;40.428;-8.436;2023-04-27T10:30:37;100415.00;;;36.39;68.83
61318;BME280;47201;40.428;-8.436;2023-04-27T10:32:48;100410.06;;;35.86;69.48
61318;BME280;47201;40.428;-8.436;2023-04-27T10:35:07;100409.81;;;35.65;70.36
61318;BME280;47201;40.428;-8.436;2023-04-27T10:37:11;100410.91;;;36.27;69.16
61318;BME280;47201;40.428;-8.436;2023-04-27T10:39:41;100415.69;;;36.88;67.58
61318;BME280;47201;40.428;-8.436;2023-04-27T10:41:52;100414.41;;;36.98;67.44
61318;BME280;47201;40.428;-8.436;2023-04-27T10:43:54;100414.81;;;38.08;65.84
61318;BME280;47201;40.428;-8.436;2023-04-27T10:46:08;100407.81;;;38.21;65.68
61318;BME280;47201;40.428;-8.436;2023-04-27T10:48:13;100409.22;;;38.90;64.66
61318;BME280;47201;40.428;-8.436;2023-04-27T10:50:14;100407.59;;;38.74;64.53
61318;BME280;47201;40.428;-8.436;2023-04-27T10:52:17;100404.28;;;39.00;64.56
61318;BME280;47201;40.428;-8.436;2023-04-27T10:54:18;100410.56;;;39.51;64.07